createdAt,value
2019-04-16T00:01:45.373Z,7.03
2019-04-16T00:12:45.761Z,7.30
2019-04-16T00:17:48.174Z,7.30
2019-04-16T00:22:56.848Z,7.00
2019-04-16T00:28:00.197Z,7.03
2019-04-16T00:33:03.985Z,6.70
2019-04-16T00:38:06.050Z,6.40
2019-04-16T00:43:07.970Z,6.73
2019-04-16T00:48:09.859Z,6.17
2019-04-16T00:53:11.935Z,7.60
2019-04-16T00:58:13.907Z,7.10
2019-04-16T01:03:15.784Z,7.07
2019-04-16T01:08:17.741Z,7.13
2019-04-16T01:13:21.691Z,7.27
2019-04-16T01:18:23.430Z,7.20
2019-04-16T01:23:25.453Z,7.63
2019-04-16T01:28:32.026Z,7.93
2019-04-16T01:33:43.397Z,7.43
2019-04-16T01:39:15.176Z,7.80
2019-04-16T01:44:05.481Z,7.80
2019-04-16T01:49:10.451Z,7.17
2019-04-16T01:54:11.271Z,7.27
2019-04-16T01:59:13.371Z,7.80
2019-04-16T02:04:19.554Z,7.40
2019-04-16T02:09:22.709Z,7.67
2019-04-16T02:14:23.095Z,7.30
2019-04-16T02:19:26.176Z,7.80
2019-04-16T02:24:28.080Z,7.50
2019-04-16T02:29:30.699Z,8.27
2019-04-16T02:34:32.654Z,7.93
2019-04-16T02:39:47.703Z,8.00
2019-04-16T02:44:38.486Z,7.60
2019-04-16T02:49:40.410Z,8.77
2019-04-16T02:55:13.872Z,8.27
2019-04-16T03:00:32.364Z,7.60
2019-04-16T03:05:36.630Z,8.40
2019-04-16T03:10:38.669Z,8.70
2019-04-16T03:15:50.199Z,8.47
2019-04-16T03:20:52.496Z,8.70
2019-04-16T03:25:56.214Z,8.90
2019-04-16T03:30:58.194Z,9.10
2019-04-16T03:36:00.126Z,8.97
2019-04-16T03:41:02.068Z,9.03
2019-04-16T03:46:04.049Z,8.50
2019-04-16T03:51:05.980Z,8.80
2019-04-16T03:56:07.984Z,8.77
2019-04-16T04:01:09.975Z,9.40
2019-04-16T04:06:12.910Z,9.63
2019-04-16T04:11:15.113Z,9.50
2019-04-16T04:16:16.999Z,9.17
2019-04-16T04:21:22.320Z,9.23
2019-04-16T04:26:22.785Z,8.83
2019-04-16T04:31:24.694Z,9.70
2019-04-16T04:36:28.387Z,9.03
2019-04-16T04:41:30.617Z,9.57
2019-04-16T04:46:32.596Z,9.57
2019-04-16T04:51:36.863Z,8.33
2019-04-16T04:56:38.343Z,9.90
2019-04-16T05:01:42.041Z,9.33
2019-04-16T05:06:44.566Z,9.83
2019-04-16T05:11:48.363Z,9.43
2019-04-16T05:16:50.270Z,9.63
2019-04-16T05:21:52.363Z,9.60
2019-04-16T05:26:56.314Z,9.90
2019-04-16T05:31:58.394Z,9.27
2019-04-16T05:37:00.592Z,9.47
2019-04-16T05:42:02.609Z,14.60
2019-04-16T05:47:04.605Z,9.53
2019-04-16T05:52:06.594Z,10.20
2019-04-16T05:57:09.884Z,9.60
2019-04-16T06:02:19.906Z,9.97
2019-04-16T06:07:22.144Z,10.70
2019-04-16T06:12:27.053Z,10.53
2019-04-16T06:18:02.509Z,10.27
2019-04-16T06:23:20.804Z,10.93
2019-04-16T06:34:31.730Z,9.90
2019-04-16T06:39:43.726Z,10.83
2019-04-16T06:44:50.953Z,11.20
2019-04-16T06:50:12.573Z,11.20
2019-04-16T06:55:36.973Z,11.13
2019-04-16T07:00:48.574Z,11.40
2019-04-16T07:06:09.536Z,10.50
2019-04-16T07:11:11.567Z,11.70
2019-04-16T07:16:13.644Z,12.33
2019-04-16T07:21:17.520Z,12.00
2019-04-16T07:26:19.529Z,10.80
2019-04-16T07:31:34.233Z,12.43
2019-04-16T07:37:00.955Z,12.33
2019-04-16T07:42:12.107Z,12.40
2019-04-16T07:47:32.025Z,11.90
2019-04-16T07:52:51.073Z,11.97
2019-04-16T07:57:52.970Z,12.43
2019-04-16T08:02:54.920Z,11.63
2019-04-16T08:07:57.652Z,12.07
2019-04-16T08:13:09.911Z,11.87
2019-04-16T08:18:12.047Z,11.37
2019-04-16T08:23:31.706Z,13.13
2019-04-16T08:28:33.651Z,11.63
2019-04-16T08:33:35.641Z,12.50
2019-04-16T08:38:37.586Z,11.77
2019-04-16T08:43:39.492Z,11.77
2019-04-16T08:48:41.391Z,11.23
2019-04-16T08:53:46.783Z,11.50
2019-04-16T08:58:48.233Z,11.53
2019-04-16T09:03:50.153Z,11.97
2019-04-16T09:09:15.531Z,11.27
2019-04-16T09:14:16.759Z,11.67
2019-04-16T09:19:19.981Z,12.13
2019-04-16T09:24:29.363Z,11.67
2019-04-16T09:29:41.591Z,12.30
2019-04-16T09:35:09.807Z,12.47
2019-04-16T09:40:24.562Z,11.90
2019-04-16T09:45:26.803Z,11.07
2019-04-16T09:50:28.674Z,12.00
2019-04-16T09:55:30.623Z,11.90
2019-04-16T10:00:33.971Z,11.90
2019-04-16T10:05:36.042Z,11.83
2019-04-16T10:10:38.099Z,12.57
2019-04-16T10:15:40.100Z,11.87
2019-04-16T10:20:41.970Z,13.30
2019-04-16T10:25:43.864Z,12.70
2019-04-16T10:30:49.053Z,12.13
2019-04-16T10:35:51.118Z,13.43
2019-04-16T10:41:00.020Z,13.53
2019-04-16T10:46:20.146Z,13.20
2019-04-16T10:51:41.761Z,13.03
2019-04-16T10:57:02.532Z,12.30
2019-04-16T11:02:24.981Z,12.03
2019-04-16T11:07:28.162Z,12.27
2019-04-16T11:12:30.143Z,12.33
2019-04-16T11:17:32.249Z,13.93
2019-04-16T11:22:34.172Z,12.60
2019-04-16T11:27:36.043Z,14.50
2019-04-16T11:32:39.908Z,13.53
2019-04-16T11:37:44.485Z,13.43
2019-04-16T11:42:46.817Z,13.87
2019-04-16T11:47:48.720Z,13.37
2019-04-16T11:52:50.733Z,14.83
2019-04-16T11:57:54.014Z,14.30
2019-04-16T12:03:34.899Z,14.20
2019-04-16T12:09:02.911Z,14.10
2019-04-16T12:14:30.789Z,14.23
2019-04-16T12:19:44.963Z,14.60
2019-04-16T12:25:21.621Z,13.57
2019-04-16T12:30:40.309Z,13.93
2019-04-16T12:35:45.857Z,13.63
2019-04-16T12:41:07.991Z,13.90
2019-04-16T12:46:17.769Z,13.37
2019-04-16T12:57:10.652Z,25.97
2019-04-16T13:02:23.793Z,12.03
2019-04-16T13:07:33.456Z,13.03
2019-04-16T13:12:55.116Z,13.13
2019-04-16T13:18:25.593Z,13.33
2019-04-16T13:23:34.149Z,12.37
2019-04-16T13:28:37.194Z,13.53
2019-04-16T13:33:39.173Z,13.57
2019-04-16T13:38:45.113Z,13.13
2019-04-16T13:43:51.191Z,13.03
2019-04-16T13:49:01.227Z,12.97
2019-04-16T13:54:27.739Z,13.40
2019-04-16T14:00:02.980Z,13.43
2019-04-16T14:05:04.601Z,13.23
2019-04-16T14:10:05.698Z,14.40
2019-04-16T14:15:08.266Z,13.50
2019-04-16T14:20:12.279Z,13.20
2019-04-16T14:25:14.785Z,14.50
2019-04-16T14:30:19.630Z,13.23
2019-04-16T14:35:33.306Z,13.10
2019-04-16T14:40:31.180Z,12.83
2019-04-16T14:45:57.534Z,12.93
2019-04-16T14:50:51.463Z,12.77
2019-04-16T14:56:00.585Z,12.73
2019-04-16T15:01:22.264Z,12.80
2019-04-16T15:06:45.494Z,12.10
2019-04-16T15:12:07.940Z,12.73
2019-04-16T15:17:19.520Z,11.37
2019-04-16T15:22:40.357Z,12.23
2019-04-16T15:27:55.901Z,10.57
2019-04-16T15:33:16.517Z,11.70
2019-04-16T15:38:29.705Z,11.57
2019-04-16T15:43:40.394Z,11.25
2019-04-16T15:49:04.939Z,10.87
2019-04-16T15:54:29.264Z,17.90
2019-04-16T15:59:37.643Z,11.27
2019-04-16T16:05:02.135Z,11.40
2019-04-16T16:10:17.203Z,10.70
2019-04-16T16:15:19.140Z,10.78
2019-04-16T16:20:21.145Z,11.20
2019-04-16T16:25:23.193Z,10.47
2019-04-16T16:30:25.229Z,10.90
2019-04-16T16:35:27.145Z,10.77
2019-04-16T16:40:29.236Z,10.53
2019-04-16T16:45:59.528Z,12.17
2019-04-16T16:51:01.551Z,11.47
2019-04-16T16:56:13.622Z,11.53
2019-04-16T17:01:37.920Z,12.20
2019-04-16T17:06:39.849Z,11.77
2019-04-16T17:11:43.309Z,11.83
2019-04-16T17:16:45.752Z,11.23
2019-04-16T17:21:47.717Z,11.40
2019-04-16T17:26:50.221Z,13.20
2019-04-16T17:31:53.538Z,27.10
2019-04-16T17:36:55.691Z,14.17
2019-04-16T17:42:05.344Z,12.07
2019-04-16T17:47:32.112Z,12.20
2019-04-16T17:52:30.893Z,11.70
2019-04-16T17:58:03.997Z,11.90
2019-04-16T18:03:24.471Z,12.10
2019-04-16T18:08:46.021Z,11.50
2019-04-16T18:14:19.367Z,11.27
2019-04-16T18:19:39.064Z,11.73
2019-04-16T18:25:05.196Z,11.10
2019-04-16T18:30:29.787Z,9.77
2019-04-16T18:35:36.294Z,9.57
2019-04-16T18:40:56.233Z,9.80
2019-04-16T18:46:17.986Z,9.70
2019-04-16T18:51:19.959Z,10.10
2019-04-16T18:56:22.219Z,9.77
2019-04-16T19:01:29.562Z,9.27
2019-04-16T19:06:31.009Z,9.97
2019-04-16T19:11:32.909Z,9.00
2019-04-16T19:16:35.242Z,8.83
2019-04-16T19:21:37.167Z,8.90
2019-04-16T19:26:39.138Z,9.10
2019-04-16T19:31:41.062Z,9.17
2019-04-16T19:36:42.956Z,9.40
2019-04-16T19:41:44.882Z,9.67
2019-04-16T19:46:52.441Z,9.03
2019-04-16T19:51:50.960Z,9.20
2019-04-16T19:56:53.172Z,9.77
2019-04-16T20:01:59.551Z,9.37
2019-04-16T20:07:01.413Z,9.30
2019-04-16T20:12:03.748Z,9.20
2019-04-16T20:17:05.856Z,9.37
2019-04-16T20:22:07.786Z,10.13
2019-04-16T20:27:09.644Z,9.70
2019-04-16T20:32:11.666Z,9.33
2019-04-16T20:37:13.641Z,9.63
2019-04-16T20:42:15.649Z,9.67
2019-04-16T20:47:17.659Z,11.13
2019-04-16T20:52:19.679Z,10.60
2019-04-16T20:57:25.311Z,10.23
2019-04-16T21:02:28.396Z,10.00
2019-04-16T21:07:30.269Z,10.53
2019-04-16T21:12:32.397Z,10.60
2019-04-16T21:17:38.021Z,10.77
2019-04-16T21:22:38.396Z,11.50
2019-04-16T21:27:52.350Z,10.83
2019-04-16T21:33:12.210Z,11.73
2019-04-16T21:38:21.576Z,11.87
2019-04-16T21:43:23.494Z,11.23
2019-04-16T21:48:27.074Z,11.97
2019-04-16T21:53:29.456Z,11.77
2019-04-16T21:58:32.457Z,11.97
2019-04-16T22:03:34.633Z,12.50
2019-04-16T22:08:36.644Z,12.73
2019-04-16T22:13:38.542Z,12.67
2019-04-16T22:18:41.424Z,12.27
2019-04-16T22:23:44.174Z,11.30
2019-04-16T22:28:46.301Z,11.73
2019-04-16T22:33:48.182Z,11.27
2019-04-16T22:38:55.004Z,10.93
2019-04-16T22:44:18.548Z,10.87
2019-04-16T22:49:22.301Z,10.43
2019-04-16T22:54:25.331Z,10.20
2019-04-16T22:59:27.229Z,9.97
2019-04-16T23:04:29.101Z,10.53
2019-04-16T23:09:31.044Z,10.40
2019-04-16T23:14:34.914Z,10.60
2019-04-16T23:19:37.133Z,11.13
2019-04-16T23:24:39.080Z,10.13
2019-04-16T23:29:40.974Z,11.57
2019-04-16T23:34:42.838Z,10.47
2019-04-16T23:39:44.780Z,10.40
2019-04-16T23:45:12.282Z,10.20
2019-04-16T23:50:44.893Z,11.47
2019-04-16T23:55:56.371Z,10.93
